Time;durP1;ratioP1;P1;durP2;ratioP2;P2;SDS_P1;SDS_P2;PMS_P1;PMS_P2;Temp;Humidity;BMP_temperature;BMP_pressure;BME280_temperature;BME280_humidity;BME280_pressure;Samples;Min_cycle;Max_cycle;Signal;HPM_P1;HPM_P2
2023/02/16 00:00:13;;;;;;;16.07;6.30;;;;;;;-145.69;100.00;52432.50;5139401;27;20201;-83
2023/02/16 00:02:40;;;;;;;16.17;5.90;;;;;;;-145.69;100.00;52476.06;5138607;27;20223;-83
2023/02/16 00:05:23;;;;;;;13.00;6.03;;;;;;;-145.69;100.00;52434.47;5140185;27;20554;-84
2023/02/16 00:07:49;;;;;;;15.03;5.93;;;;;;;-145.69;100.00;52430.53;5143807;28;20654;-83
2023/02/16 00:10:16;;;;;;;10.80;4.93;;;;;;;-145.69;100.00;52474.09;5138015;27;20308;-83
2023/02/16 00:15:31;;;;;;;11.83;5.37;;;;;;;-145.69;100.00;52456.28;5136201;27;20219;-84
2023/02/16 00:17:59;;;;;;;12.40;5.40;;;;;;;-145.69;100.00;52414.69;5136167;28;20204;-84
2023/02/16 00:20:27;;;;;;;17.37;5.87;;;;;;;-145.69;100.00;52440.44;5140937;27;20211;-84
2023/02/16 00:22:55;;;;;;;12.77;5.33;;;;;;;-145.69;100.00;52412.69;5140745;27;20227;-83
2023/02/16 00:25:22;;;;;;;11.67;5.00;;;;;;;-145.69;100.00;52448.34;5139587;27;20199;-83
2023/02/16 00:27:48;;;;;;;12.20;5.20;;;;;;;-145.69;100.00;52454.28;5139503;27;20309;-84
2023/02/16 00:30:17;;;;;;;10.73;4.77;;;;;;;-145.69;100.00;52438.44;5139637;27;20227;-84
2023/02/16 00:32:45;;;;;;;11.73;4.43;;;;;;;-145.69;100.00;52424.59;5138189;27;20192;-84
2023/02/16 00:35:17;;;;;;;9.63;4.67;;;;;;;-145.69;100.00;52460.22;5139431;27;20203;-84
2023/02/16 00:37:44;;;;;;;9.60;5.00;;;;;;;-145.69;100.00;52400.81;5140761;27;20201;-84
2023/02/16 00:40:12;;;;;;;10.23;4.87;;;;;;;-145.69;100.00;52446.38;5139942;27;20227;-83
2023/02/16 00:42:39;;;;;;;11.33;4.10;;;;;;;-145.69;100.00;52466.16;5133320;27;20197;-82
2023/02/16 00:45:14;;;;;;;8.30;4.33;;;;;;;-145.69;100.00;52416.66;5140806;27;20567;-84
2023/02/16 00:47:45;;;;;;;11.40;5.23;;;;;;;-145.69;100.00;52438.44;5146557;27;20196;-83
2023/02/16 00:50:17;;;;;;;9.67;4.67;;;;;;;-145.69;100.00;52442.41;5144818;27;20220;-83
2023/02/16 00:52:45;;;;;;;8.70;4.57;;;;;;;-145.69;100.00;52448.34;5146010;27;20204;-82
2023/02/16 00:55:14;;;;;;;9.87;4.57;;;;;;;-145.69;100.00;52444.38;5143877;27;20563;-84
2023/02/16 00:57:45;;;;;;;9.27;4.57;;;;;;;-145.69;100.00;52430.53;5143219;27;20647;-83
2023/02/16 01:00:16;;;;;;;10.97;4.30;;;;;;;-145.69;100.00;52430.53;5144861;27;20196;-83
2023/02/16 01:02:49;;;;;;;7.50;4.40;;;;;;;-145.69;100.00;52468.16;5144331;27;20582;-83
2023/02/16 01:05:18;;;;;;;8.87;4.33;;;;;;;-145.69;100.00;52432.50;5144564;27;20201;-84
2023/02/16 01:13:15;;;;;;;13.60;5.10;;;;;;;-145.69;100.00;52478.06;5143816;27;20199;-83
2023/02/16 01:15:42;;;;;;;10.90;4.63;;;;;;;-145.69;100.00;52466.16;5142732;27;20192;-83
2023/02/16 01:18:10;;;;;;;11.33;4.50;;;;;;;-145.69;100.00;52452.31;5143122;27;20547;-83
2023/02/16 01:20:38;;;;;;;11.53;4.70;;;;;;;-145.69;100.00;52432.50;5142839;27;20196;-83
2023/02/16 01:23:05;;;;;;;10.43;4.73;;;;;;;-145.69;100.00;52454.28;5141854;27;20551;-84
2023/02/16 01:25:32;;;;;;;9.30;4.47;;;;;;;-145.69;100.00;52448.34;5141073;27;20193;-84
2023/02/16 01:27:58;;;;;;;12.80;5.00;;;;;;;-145.69;100.00;52430.53;5139475;27;20212;-82
2023/02/16 01:30:26;;;;;;;13.10;4.40;;;;;;;-145.69;100.00;52474.09;5140480;27;20278;-84
2023/02/16 01:32:53;;;;;;;14.10;5.50;;;;;;;-145.69;100.00;52432.50;5140923;27;20196;-84
2023/02/16 01:35:20;;;;;;;11.60;5.17;;;;;;;-145.69;100.00;52436.47;5140405;27;20205;-83
2023/02/16 01:37:48;;;;;;;14.70;6.33;;;;;;;-145.69;100.00;52450.31;5142354;27;20200;-83
2023/02/16 01:40:37;;;;;;;11.13;4.73;;;;;;;-145.69;100.00;52416.66;5142379;27;20204;-82
2023/02/16 01:43:15;;;;;;;14.03;5.10;;;;;;;-145.69;100.00;52468.16;5138805;27;20220;-83
2023/02/16 01:45:46;;;;;;;14.53;5.33;;;;;;;-145.69;100.00;52428.53;5139706;27;20201;-82
2023/02/16 01:48:21;;;;;;;14.73;5.60;;;;;;;-145.69;100.00;52484.00;5138792;27;20206;-82
2023/02/16 01:50:53;;;;;;;11.63;5.13;;;;;;;-145.69;100.00;52456.28;5137521;27;20227;-83
2023/02/16 01:53:26;;;;;;;16.50;6.93;;;;;;;-145.69;100.00;52438.44;5135633;27;20435;-82
2023/02/16 01:55:58;;;;;;;13.73;5.63;;;;;;;-145.69;100.00;52487.97;5141090;27;20204;-83
2023/02/16 01:58:34;;;;;;;11.37;5.57;;;;;;;-145.69;100.00;52472.13;5140718;27;20209;-83
2023/02/16 02:01:37;;;;;;;12.03;5.00;;;;;;;-145.69;100.00;52444.38;5139034;27;20207;-83
2023/02/16 02:06:55;;;;;;;15.03;5.50;;;;;;;-145.69;100.00;52460.22;5139590;27;20200;-82
2023/02/16 02:09:31;;;;;;;14.13;5.67;;;;;;;-145.69;100.00;52424.59;5137572;27;20220;-82
2023/02/16 02:12:06;;;;;;;18.33;6.53;;;;;;;-145.69;100.00;52430.53;5136895;27;20197;-81
2023/02/16 02:14:37;;;;;;;14.97;6.13;;;;;;;-145.69;100.00;52430.53;5137557;27;20204;-82
2023/02/16 02:17:07;;;;;;;18.67;6.40;;;;;;;-145.69;100.00;52422.59;5137988;27;20193;-82
2023/02/16 02:19:48;;;;;;;11.77;5.27;;;;;;;-145.69;100.00;52450.31;5138500;27;20577;-83
2023/02/16 02:25:55;;;;;;;12.07;5.30;;;;;;;-145.69;100.00;52458.25;5137465;27;20644;-82
2023/02/16 02:28:30;;;;;;;17.90;6.77;;;;;;;-145.69;100.00;52432.50;5128629;27;20275;-82
2023/02/16 02:31:04;;;;;;;13.57;5.50;;;;;;;-145.69;100.00;52438.44;5137073;27;20220;-83
2023/02/16 02:33:48;;;;;;;11.13;5.30;;;;;;;-145.69;100.00;52464.19;5136727;27;20834;-83
2023/02/16 02:36:26;;;;;;;17.93;6.47;;;;;;;-145.69;100.00;52454.28;5137264;27;20287;-82
2023/02/16 02:39:04;;;;;;;13.47;6.13;;;;;;;-145.69;100.00;52474.09;5136945;27;20203;-82
2023/02/16 02:44:25;;;;;;;17.53;6.03;;;;;;;-145.69;100.00;52462.22;5133566;27;20207;-82
2023/02/16 02:46:54;;;;;;;19.13;6.40;;;;;;;-145.69;100.00;52442.41;5136349;27;20643;-82
2023/02/16 02:49:21;;;;;;;14.67;5.57;;;;;;;-145.69;100.00;52452.31;5137100;27;20832;-83
2023/02/16 02:51:48;;;;;;;12.40;4.87;;;;;;;-145.69;100.00;52452.31;5137771;27;20643;-84
2023/02/16 03:02:45;;;;;;;18.20;6.77;;;;;;;-145.69;100.00;52440.44;5125700;27;20235;-84
2023/02/16 03:05:18;;;;;;;14.47;5.97;;;;;;;-145.69;100.00;52438.44;5139079;27;20284;-81
2023/02/16 03:07:46;;;;;;;17.23;6.77;;;;;;;-145.69;100.00;52462.22;5138259;27;20211;-84
2023/02/16 03:13:01;;;;;;;17.63;6.63;;;;;;;-145.69;100.00;52480.03;5137911;27;20238;-84
2023/02/16 03:15:31;;;;;;;17.17;6.20;;;;;;;-145.69;100.00;52464.19;5137033;27;20193;-84
2023/02/16 03:29:30;;;;;;;14.03;5.60;;;;;;;-145.69;100.00;52474.09;5136523;27;20208;-84
2023/02/16 03:31:59;;;;;;;16.53;5.87;;;;;;;-145.69;100.00;52432.50;5137678;27;20551;-84
2023/02/16 03:34:26;;;;;;;15.53;5.77;;;;;;;-145.69;100.00;52440.44;5137832;27;20197;-83
2023/02/16 03:36:58;;;;;;;14.00;5.87;;;;;;;-145.69;100.00;52424.59;5137175;27;20289;-84
2023/02/16 03:39:27;;;;;;;13.37;6.13;;;;;;;-145.69;100.00;52444.38;5137907;27;20211;-83
2023/02/16 03:41:56;;;;;;;13.97;4.87;;;;;;;-145.69;100.00;52428.53;5139403;27;20200;-83
2023/02/16 03:44:23;;;;;;;16.00;6.37;;;;;;;-145.69;100.00;52444.38;5139301;27;20212;-83
2023/02/16 03:46:50;;;;;;;20.23;6.20;;;;;;;-145.69;100.00;52440.44;5139750;27;20204;-84
2023/02/16 03:49:19;;;;;;;16.40;5.97;;;;;;;-145.69;100.00;52420.63;5139304;27;20201;-83
2023/02/16 03:51:46;;;;;;;13.00;5.23;;;;;;;-145.69;100.00;52442.41;5138067;27;20209;-83
2023/02/16 03:54:16;;;;;;;12.17;5.00;;;;;;;-145.69;100.00;52482.00;5135183;27;20570;-83
2023/02/16 03:56:42;;;;;;;11.77;5.50;;;;;;;-145.69;100.00;52450.31;5135231;27;20204;-83
2023/02/16 03:59:10;;;;;;;11.40;4.43;;;;;;;-145.69;100.00;52456.28;5135582;27;20193;-82
2023/02/16 04:01:37;;;;;;;13.27;5.07;;;;;;;-145.69;100.00;52464.19;5134809;27;20200;-82
2023/02/16 04:04:04;;;;;;;11.90;4.90;;;;;;;-145.69;100.00;52452.31;5136087;27;20323;-83
2023/02/16 04:06:33;;;;;;;14.10;5.13;;;;;;;-145.69;100.00;52464.19;5137156;27;20212;-82
2023/02/16 04:09:07;;;;;;;10.40;4.73;;;;;;;-145.69;100.00;52448.34;5134051;27;20200;-82
2023/02/16 04:14:18;;;;;;;12.83;4.87;;;;;;;-145.69;100.00;52472.13;5135542;28;20195;-82
2023/02/16 04:16:45;;;;;;;11.80;4.80;;;;;;;-145.69;100.00;52440.44;5135607;28;20205;-82
2023/02/16 04:19:13;;;;;;;12.60;5.43;;;;;;;-145.69;100.00;52468.16;5134767;27;20281;-82
2023/02/16 04:21:42;;;;;;;15.07;5.40;;;;;;;-145.69;100.00;52493.91;5134379;27;20239;-83
2023/02/16 04:24:09;;;;;;;10.03;4.70;;;;;;;-145.69;100.00;52440.44;5135280;27;20224;-83
2023/02/16 04:26:35;;;;;;;9.90;4.70;;;;;;;-145.69;100.00;52466.16;5135195;27;20204;-82
2023/02/16 04:29:02;;;;;;;11.40;4.77;;;;;;;-145.69;100.00;52448.34;5134106;28;20193;-82
2023/02/16 04:31:29;;;;;;;14.97;5.17;;;;;;;-145.69;100.00;52434.47;5133954;28;20224;-82
2023/02/16 04:33:58;;;;;;;14.43;4.90;;;;;;;-145.69;100.00;52420.63;5133801;27;20207;-82
2023/02/16 04:36:25;;;;;;;11.07;4.67;;;;;;;-145.69;100.00;52476.06;5133486;27;20250;-82
2023/02/16 04:38:53;;;;;;;11.90;4.87;;;;;;;-145.69;100.00;52444.38;5133754;27;20348;-80
2023/02/16 04:41:19;;;;;;;10.20;4.80;;;;;;;-145.69;100.00;52444.38;5133045;27;20548;-82
2023/02/16 04:43:46;;;;;;;12.87;4.97;;;;;;;-145.69;100.00;52468.16;5133128;27;20196;-81
2023/02/16 04:46:14;;;;;;;11.43;5.00;;;;;;;-145.69;100.00;52468.16;5133849;27;20283;-81
2023/02/16 04:48:43;;;;;;;10.33;4.50;;;;;;;-145.69;100.00;52491.91;5133359;27;20691;-81
2023/02/16 04:51:10;;;;;;;12.13;4.53;;;;;;;-145.69;100.00;52416.66;5133360;27;20228;-81
2023/02/16 04:53:36;;;;;;;12.47;4.57;;;;;;;-145.69;100.00;52450.31;5133341;27;20200;-81
2023/02/16 04:56:05;;;;;;;13.50;4.53;;;;;;;-145.69;100.00;52484.00;5133404;28;20204;-82
2023/02/16 04:58:31;;;;;;;10.33;4.93;;;;;;;-145.69;100.00;52434.47;5133169;28;20197;-81
2023/02/16 05:00:58;;;;;;;10.77;4.60;;;;;;;-145.69;100.00;52472.13;5133544;27;20210;-81
2023/02/16 05:03:24;;;;;;;12.27;4.60;;;;;;;-145.69;100.00;52444.38;5132969;27;20591;-81
2023/02/16 05:05:51;;;;;;;11.47;5.17;;;;;;;-145.69;100.00;52444.38;5133429;27;20232;-82
2023/02/16 05:08:19;;;;;;;10.97;4.53;;;;;;;-145.69;100.00;52468.16;5136389;27;20286;-82
2023/02/16 05:14:40;;;;;;;13.60;5.30;;;;;;;-145.69;100.00;52424.59;5137522;27;20254;-81
2023/02/16 05:16:20;;;;;;;10.33;4.77;;;;;;;-145.69;100.00;52448.34;5127601;27;20681;-81
2023/02/16 05:18:47;;;;;;;15.53;5.10;;;;;;;-145.69;100.00;52464.19;5136941;27;20201;-81
2023/02/16 05:21:32;;;;;;;12.40;4.50;;;;;;;-145.69;100.00;52440.44;5137058;27;20228;-81
2023/02/16 05:23:59;;;;;;;10.17;4.50;;;;;;;-145.69;100.00;52450.31;5136985;27;20283;-81
2023/02/16 05:26:29;;;;;;;10.63;4.50;;;;;;;-145.69;100.00;52460.22;5135520;27;20612;-81
2023/02/16 05:28:57;;;;;;;9.93;4.17;;;;;;;-145.69;100.00;52446.38;5136444;27;20236;-82
2023/02/16 05:31:25;;;;;;;14.37;4.40;;;;;;;-145.69;100.00;52485.97;5136532;27;20220;-81
2023/02/16 05:33:52;;;;;;;12.10;4.60;;;;;;;-145.69;100.00;52444.38;5136735;27;20812;-81
2023/02/16 05:36:19;;;;;;;13.80;4.23;;;;;;;-145.69;100.00;52482.00;5136951;27;20207;-82
2023/02/16 05:38:46;;;;;;;10.23;4.90;;;;;;;-145.69;100.00;52464.19;5136651;27;20211;-81
2023/02/16 05:41:22;;;;;;;12.23;4.57;;;;;;;-145.69;100.00;52446.38;5136369;27;20643;-81
2023/02/16 05:43:49;;;;;;;10.00;4.20;;;;;;;-145.69;100.00;52480.03;5136259;27;20195;-81
2023/02/16 05:46:17;;;;;;;10.90;4.40;;;;;;;-145.69;100.00;52480.03;5136635;27;20285;-81
2023/02/16 05:48:43;;;;;;;12.57;5.20;;;;;;;-145.69;100.00;52416.66;5136718;27;20192;-81
2023/02/16 05:51:10;;;;;;;11.43;4.23;;;;;;;-145.69;100.00;52480.03;5136322;27;20231;-81
2023/02/16 05:53:38;;;;;;;11.80;4.20;;;;;;;-145.69;100.00;52484.00;5136134;27;20204;-81
2023/02/16 05:56:08;;;;;;;14.30;5.00;;;;;;;-145.69;100.00;52450.31;5136068;27;20208;-80
2023/02/16 05:58:34;;;;;;;10.93;4.67;;;;;;;-145.69;100.00;52470.13;5135950;27;20250;-80
2023/02/16 06:01:01;;;;;;;9.57;4.33;;;;;;;-145.69;100.00;52468.16;5136171;27;20235;-80
2023/02/16 06:03:31;;;;;;;9.60;4.43;;;;;;;-145.69;100.00;52450.31;5136110;27;20238;-81
2023/02/16 06:06:00;;;;;;;10.67;4.17;;;;;;;-145.69;100.00;52456.28;5135988;27;20193;-81
2023/02/16 06:08:27;;;;;;;10.33;4.53;;;;;;;-145.69;100.00;52456.28;5136277;27;20221;-81
2023/02/16 06:10:54;;;;;;;14.23;4.03;;;;;;;-145.69;100.00;52464.19;5135771;27;20691;-82
2023/02/16 06:13:22;;;;;;;8.27;3.97;;;;;;;-145.69;100.00;52480.03;5136219;27;20203;-81
2023/02/16 06:15:52;;;;;;;17.83;4.60;;;;;;;-145.69;100.00;52464.19;5135198;27;20253;-82
2023/02/16 06:18:19;;;;;;;9.70;3.60;;;;;;;-145.69;100.00;52474.09;5115111;28;20288;-82
2023/02/16 06:20:48;;;;;;;10.83;4.00;;;;;;;-145.69;100.00;52478.06;5115795;28;20202;-81
2023/02/16 06:23:14;;;;;;;9.97;3.70;;;;;;;-145.69;100.00;52452.31;5114350;28;20201;-82
2023/02/16 06:25:44;;;;;;;8.60;4.20;;;;;;;-145.69;100.00;52458.25;5116056;28;20698;-81
2023/02/16 06:28:11;;;;;;;10.50;4.30;;;;;;;-145.69;100.00;52476.06;5118915;27;20189;-82
2023/02/16 06:30:38;;;;;;;12.37;4.10;;;;;;;-145.69;100.00;52440.44;5139601;27;20224;-82
2023/02/16 06:33:05;;;;;;;10.70;4.53;;;;;;;-145.69;100.00;52454.28;5142515;27;20207;-83
2023/02/16 06:35:31;;;;;;;10.80;4.10;;;;;;;-145.69;100.00;52456.28;5138878;27;20197;-82
2023/02/16 06:37:59;;;;;;;9.53;4.13;;;;;;;-145.69;100.00;52519.63;5140204;27;20238;-82
2023/02/16 06:40:26;;;;;;;10.47;4.10;;;;;;;-145.69;100.00;52464.19;5138344;27;20200;-82
2023/02/16 06:42:53;;;;;;;9.23;3.63;;;;;;;-145.69;100.00;52484.00;5137022;27;20204;-82
2023/02/16 06:45:19;;;;;;;7.60;3.40;;;;;;;-145.69;100.00;52456.28;5139397;27;20205;-82
2023/02/16 06:47:46;;;;;;;8.87;3.63;;;;;;;-145.69;100.00;52460.22;5139864;27;20201;-82
2023/02/16 06:50:13;;;;;;;8.00;3.60;;;;;;;-145.69;100.00;52472.13;5137421;27;20192;-81
2023/02/16 06:52:40;;;;;;;9.97;4.17;;;;;;;-145.69;100.00;52444.38;5137994;27;20196;-82
2023/02/16 06:55:08;;;;;;;8.33;3.73;;;;;;;-145.69;100.00;52485.97;5136976;27;20207;-82
2023/02/16 06:57:35;;;;;;;7.13;3.43;;;;;;;-145.69;100.00;52436.47;5136383;27;20288;-81
2023/02/16 07:00:03;;;;;;;8.60;3.93;;;;;;;-145.69;100.00;52462.22;5135034;27;20208;-80
2023/02/16 07:02:30;;;;;;;8.87;3.73;;;;;;;-145.69;100.00;52464.19;5134590;27;20215;-80
2023/02/16 07:04:56;;;;;;;7.53;3.57;;;;;;;-145.69;100.00;52448.34;5134762;27;20562;-81
2023/02/16 07:07:23;;;;;;;7.10;3.53;;;;;;;-145.69;100.00;52484.00;5133565;27;20204;-81
2023/02/16 07:09:54;;;;;;;9.80;3.87;;;;;;;-145.69;100.00;52468.16;5135006;27;20222;-80
2023/02/16 07:12:21;;;;;;;7.50;3.60;;;;;;;-145.69;100.00;52466.16;5134168;27;20307;-80
2023/02/16 07:14:48;;;;;;;7.57;3.93;;;;;;;-145.69;100.00;52468.16;5134429;27;20192;-80
2023/02/16 07:17:15;;;;;;;9.35;4.40;;;;;;;-145.69;100.00;52491.91;5133398;27;20528;-80
2023/02/16 07:19:42;;;;;;;10.43;3.83;;;;;;;-145.69;100.00;52478.06;5132128;27;20204;-80
2023/02/16 07:22:08;;;;;;;8.07;4.50;;;;;;;-145.69;100.00;52472.13;5116731;27;20306;-78
2023/02/16 07:24:38;;;;;;;12.63;3.83;;;;;;;-145.69;100.00;52470.13;5135231;27;20559;-81
2023/02/16 07:27:04;;;;;;;9.50;3.53;;;;;;;-145.69;100.00;52452.31;5135023;27;20224;-81
2023/02/16 07:29:37;;;;;;;9.03;3.80;;;;;;;-145.69;100.00;52426.56;5133995;27;20200;-80
2023/02/16 07:32:04;;;;;;;13.43;4.10;;;;;;;-145.69;100.00;52456.28;5134276;27;20231;-80
2023/02/16 07:34:31;;;;;;;10.70;3.53;;;;;;;-145.69;100.00;52470.13;5134417;27;20201;-80
2023/02/16 07:36:58;;;;;;;6.23;3.07;;;;;;;-145.69;100.00;52432.50;5134372;27;20200;-80
2023/02/16 07:39:25;;;;;;;11.00;3.50;;;;;;;-145.69;100.00;52440.44;5134592;27;20208;-81
2023/02/16 07:41:51;;;;;;;8.73;3.87;;;;;;;-145.69;100.00;52428.53;5136308;27;20200;-82
2023/02/16 07:44:19;;;;;;;13.37;3.53;;;;;;;-145.69;100.00;52440.44;5135769;27;20196;-82
2023/02/16 07:46:50;;;;;;;6.77;3.43;;;;;;;-145.69;100.00;52470.13;5136104;27;20192;-81
2023/02/16 07:49:16;;;;;;;7.03;3.20;;;;;;;-145.69;100.00;52424.59;5136684;27;20695;-82
2023/02/16 07:51:45;;;;;;;5.60;2.77;;;;;;;-145.69;100.00;52464.19;5136021;27;20220;-81
2023/02/16 07:54:16;;;;;;;9.47;3.20;;;;;;;-145.69;100.00;52468.16;5136528;27;20209;-81
2023/02/16 07:56:42;;;;;;;8.47;3.10;;;;;;;-145.69;100.00;52450.31;5136221;27;20204;-82
2023/02/16 07:59:09;;;;;;;4.87;2.80;;;;;;;-145.69;100.00;52434.47;5136158;27;20250;-82
2023/02/16 08:01:37;;;;;;;6.53;3.03;;;;;;;-145.69;100.00;52489.94;5136560;27;20223;-82
2023/02/16 08:04:06;;;;;;;4.67;2.43;;;;;;;-145.69;100.00;52442.41;5136374;27;20231;-82
2023/02/16 08:06:34;;;;;;;8.20;2.80;;;;;;;-145.69;100.00;52468.16;5135929;27;20283;-82
2023/02/16 08:09:00;;;;;;;5.70;2.77;;;;;;;-145.69;100.00;52424.59;5136005;27;20193;-81
2023/02/16 08:11:27;;;;;;;8.33;3.17;;;;;;;-145.69;100.00;52416.66;5136213;28;20224;-82
2023/02/16 08:13:54;;;;;;;6.90;2.83;;;;;;;-145.69;100.00;52390.91;5135356;27;20283;-82
2023/02/16 08:16:22;;;;;;;7.07;3.00;;;;;;;-145.69;100.00;52424.59;5135484;28;20656;-82
2023/02/16 08:18:49;;;;;;;7.67;3.27;;;;;;;-145.69;100.00;52474.09;5135844;28;20197;-83
2023/02/16 08:21:19;;;;;;;5.33;3.03;;;;;;;-145.69;100.00;52460.22;5134320;28;20204;-82
2023/02/16 08:23:47;;;;;;;5.03;2.83;;;;;;;-145.69;100.00;52414.69;5134515;27;20207;-83
2023/02/16 08:26:17;;;;;;;5.97;2.77;;;;;;;-145.69;100.00;52460.22;5134590;27;20207;-83
2023/02/16 08:28:44;;;;;;;5.60;2.80;;;;;;;-145.69;100.00;52418.63;5134911;28;20196;-83
2023/02/16 08:31:12;;;;;;;5.77;2.67;;;;;;;-145.69;100.00;52470.13;5134106;27;20219;-83
2023/02/16 08:33:39;;;;;;;5.73;2.80;;;;;;;-145.69;100.00;52432.50;5134607;27;20197;-83
2023/02/16 08:36:08;;;;;;;5.30;2.77;;;;;;;-145.69;100.00;52438.44;5133829;28;20208;-83
2023/02/16 08:38:36;;;;;;;6.97;3.07;;;;;;;-145.69;100.00;52438.44;5133408;27;20200;-82
2023/02/16 08:41:02;;;;;;;6.77;2.90;;;;;;;-145.69;100.00;52462.22;5135457;27;20200;-82
2023/02/16 08:43:29;;;;;;;5.53;2.63;;;;;;;-145.69;100.00;52438.44;5137807;27;20220;-82
2023/02/16 08:45:56;;;;;;;6.97;3.10;;;;;;;-145.69;100.00;52428.53;5137910;27;20200;-83
2023/02/16 08:48:22;;;;;;;4.60;2.87;;;;;;;-145.69;99.37;52418.63;5136789;27;20287;-82
2023/02/16 08:50:52;;;;;;;6.30;2.50;;;;;;;-145.69;96.96;52454.28;5137475;27;20269;-81
2023/02/16 08:53:20;;;;;;;5.07;2.70;;;;;;;-145.69;100.00;52440.44;5137211;27;20203;-82
2023/02/16 08:55:53;;;;;;;4.40;2.50;;;;;;;-145.69;97.47;52416.66;5137065;27;20199;-81
2023/02/16 08:58:19;;;;;;;12.20;3.97;;;;;;;-145.69;94.74;52424.59;5117177;28;20197;-81
2023/02/16 09:00:46;;;;;;;16.23;5.97;;;;;;;-145.69;90.57;52428.53;5128878;27;20192;-80
2023/02/16 09:03:13;;;;;;;15.03;6.87;;;;;;;-145.69;94.42;52363.19;5137016;27;20264;-80
2023/02/16 09:05:40;;;;;;;12.43;5.07;;;;;;;-145.69;86.00;52400.81;5135922;27;20228;-79
2023/02/16 09:08:07;;;;;;;5.10;2.63;;;;;;;-145.69;89.11;52410.72;5136944;27;20287;-79
2023/02/16 09:10:33;;;;;;;5.30;2.60;;;;;;;-145.69;82.16;52402.78;5136916;27;20206;-80
2023/02/16 09:13:02;;;;;;;4.13;2.47;;;;;;;-145.69;73.56;52392.91;5127995;27;20229;-79
2023/02/16 09:15:29;;;;;;;5.07;2.73;;;;;;;-145.69;67.75;52377.06;5116430;28;20201;-80
2023/02/16 09:17:55;;;;;;;5.37;2.40;;;;;;;-145.69;62.29;52394.88;5116549;28;20235;-80
2023/02/16 09:20:22;;;;;;;7.10;2.53;;;;;;;-145.69;63.29;52408.75;5120712;27;20193;-80
2023/02/16 09:22:48;;;;;;;5.23;2.13;;;;;;;-145.69;56.60;52394.88;5136682;27;20208;-81
2023/02/16 09:25:15;;;;;;;6.90;2.77;;;;;;;-145.69;56.42;52402.78;5137007;27;20200;-80
2023/02/16 09:27:43;;;;;;;5.80;2.77;;;;;;;-145.69;55.43;52369.13;5136724;27;20287;-80
2023/02/16 09:30:12;;;;;;;5.83;2.90;;;;;;;-145.69;53.08;52381.00;5136141;27;20261;-80
2023/02/16 09:32:39;;;;;;;5.43;2.33;;;;;;;-145.69;51.33;52367.16;5136207;27;20682;-81
2023/02/16 09:35:06;;;;;;;7.70;3.00;;;;;;;-145.69;50.17;52369.13;5136451;27;20197;-81
2023/02/16 09:37:33;;;;;;;4.80;2.53;;;;;;;-145.69;46.74;52365.16;5136539;27;20196;-81
2023/02/16 09:40:00;;;;;;;5.60;2.53;;;;;;;-145.69;47.22;52349.31;5136418;27;20192;-81
2023/02/16 09:42:33;;;;;;;7.37;2.67;;;;;;;-145.69;47.99;52361.22;5135850;27;20524;-81
2023/02/16 09:45:08;;;;;;;6.30;2.47;;;;;;;-145.69;46.58;52363.19;5136199;27;20678;-81
2023/02/16 09:47:39;;;;;;;5.33;2.73;;;;;;;-145.69;45.36;52367.16;5136391;27;20204;-82
2023/02/16 09:50:14;;;;;;;6.13;2.67;;;;;;;-145.69;46.74;52361.22;5136589;27;20196;-82
2023/02/16 09:52:50;;;;;;;5.20;2.40;;;;;;;-145.69;46.06;52353.28;5135575;27;20552;-82
2023/02/16 09:55:19;;;;;;;8.23;2.97;;;;;;;-145.69;45.95;52357.25;5136203;27;20255;-82
2023/02/16 09:58:07;;;;;;;6.93;2.67;;;;;;;-145.69;44.21;52386.97;5136396;27;20208;-82
2023/02/16 10:00:48;;;;;;;7.03;3.00;;;;;;;-145.69;43.48;52333.47;5135974;27;20644;-82
2023/02/16 10:03:48;;;;;;;5.20;2.87;;;;;;;-145.69;44.99;52341.41;5135461;27;20671;-82
2023/02/16 10:06:29;;;;;;;4.57;2.40;;;;;;;-145.69;42.97;52297.84;5136141;27;20205;-80
2023/02/16 10:08:59;;;;;;;5.13;2.77;;;;;;;-145.69;44.66;52373.09;5135890;27;20196;-80
2023/02/16 10:11:40;;;;;;;5.40;3.00;;;;;;;-145.69;44.58;52345.38;5135806;27;20200;-81
2023/02/16 10:14:15;;;;;;;9.13;3.03;;;;;;;-145.69;43.61;52373.09;5115691;27;20280;-81
2023/02/16 10:16:45;;;;;;;8.70;2.90;;;;;;;-145.69;42.97;52339.44;5115595;28;20193;-83
2023/02/16 10:19:20;;;;;;;7.87;2.77;;;;;;;-145.69;42.11;52351.31;5115910;28;20217;-85
2023/02/16 10:21:51;;;;;;;6.43;2.53;;;;;;;-145.69;43.74;52329.53;5116817;27;20352;-81
2023/02/16 10:24:17;;;;;;;5.10;2.63;;;;;;;-145.69;43.06;52349.31;5135737;27;20521;-81
2023/02/16 10:26:47;;;;;;;7.10;2.80;;;;;;;-145.69;44.03;52309.72;5135796;27;20651;-81
2023/02/16 10:29:16;;;;;;;6.50;2.30;;;;;;;-145.69;41.74;52327.53;5135478;27;20209;-81
2023/02/16 10:31:51;;;;;;;5.73;3.03;;;;;;;-145.69;41.68;52325.56;5133692;27;20213;-81
2023/02/16 10:34:22;;;;;;;6.47;2.83;;;;;;;-145.69;40.79;52329.53;5135411;27;20690;-82
2023/02/16 10:37:02;;;;;;;4.77;2.53;;;;;;;-145.69;40.48;52313.69;5135464;27;20211;-81
2023/02/16 10:39:35;;;;;;;4.07;2.23;;;;;;;-145.69;39.42;52333.47;5135461;27;20196;-82
2023/02/16 10:42:08;;;;;;;4.27;2.10;;;;;;;-145.69;38.70;52301.81;5135463;27;20207;-82
2023/02/16 10:44:40;;;;;;;3.77;2.20;;;;;;;-145.69;38.86;52337.44;5135483;27;20205;-82
2023/02/16 10:47:18;;;;;;;5.87;2.43;;;;;;;-145.69;40.41;52325.56;5135689;27;20291;-84
2023/02/16 10:49:46;;;;;;;7.07;2.40;;;;;;;-145.69;39.64;52297.84;5135891;27;20659;-82
2023/02/16 10:52:13;;;;;;;5.13;2.80;;;;;;;-145.69;38.16;52329.53;5135881;27;20274;-85
2023/02/16 10:54:40;;;;;;;6.83;2.37;;;;;;;-145.69;37.77;52365.16;5135564;27;20567;-81
2023/02/16 10:57:18;;;;;;;4.93;2.50;;;;;;;-145.69;37.03;52291.91;5134980;27;20200;-80
2023/02/16 10:59:47;;;;;;;4.00;2.30;;;;;;;-145.69;38.63;52337.44;5123468;27;20563;-79
2023/02/16 11:02:18;;;;;;;4.17;2.23;;;;;;;-145.69;37.37;52315.66;5134350;27;20245;-80
2023/02/16 11:04:51;;;;;;;9.13;2.80;;;;;;;-145.69;37.08;52329.53;5133625;27;20235;-81
2023/02/16 11:07:19;;;;;;;6.25;2.35;;;;;;;-145.69;35.76;52283.97;5134794;27;20200;-79
2023/02/16 11:09:47;;;;;;;5.03;2.53;;;;;;;-145.69;36.02;52323.59;5134881;27;20208;-79
2023/02/16 11:12:18;;;;;;;3.85;2.20;;;;;;;-145.69;35.85;52305.75;5130406;27;20217;-81
2023/02/16 11:14:51;;;;;;;5.30;2.30;;;;;;;-145.69;35.34;52276.06;5114349;28;20201;-80
2023/02/16 11:17:19;;;;;;;2.78;1.70;;;;;;;-145.69;35.35;52258.22;5113678;28;20686;-80
2023/02/16 11:19:56;;;;;;;2.53;1.75;;;;;;;-145.69;36.14;52282.00;5113876;28;20201;-79
2023/02/16 11:22:36;;;;;;;5.18;1.90;;;;;;;-145.69;34.73;52307.75;5118736;27;20192;-79
2023/02/16 11:25:20;;;;;;;2.80;1.70;;;;;;;-145.69;34.70;52305.75;5134574;27;20197;-80
2023/02/16 11:27:52;;;;;;;4.10;1.88;;;;;;;-145.69;34.39;52293.88;5134572;27;20208;-80
2023/02/16 11:30:28;;;;;;;8.48;2.30;;;;;;;-145.69;34.54;52276.06;5134089;27;20597;-79
2023/02/16 11:32:55;;;;;;;4.00;2.17;;;;;;;-145.69;35.22;52293.88;5134208;27;20387;-79
2023/02/16 11:35:23;;;;;;;3.75;2.05;;;;;;;-145.69;34.34;52274.06;5134209;27;20200;-80
2023/02/16 11:37:50;;;;;;;3.60;1.85;;;;;;;-145.69;34.66;52305.75;5133947;27;20203;-80
2023/02/16 11:40:22;;;;;;;3.63;1.90;;;;;;;-145.69;34.11;52313.69;5133879;27;20651;-80
2023/02/16 11:42:51;;;;;;;6.80;2.10;;;;;;;-145.69;36.26;52303.78;5134005;27;20192;-81
2023/02/16 11:45:30;;;;;;;5.22;2.15;;;;;;;-145.69;35.54;52268.13;5133679;27;20197;-80
2023/02/16 11:48:00;;;;;;;2.83;1.60;;;;;;;-145.69;35.95;52282.00;5134102;27;20233;-81
2023/02/16 11:50:30;;;;;;;3.72;2.00;;;;;;;-145.69;35.19;52272.09;5134141;27;20197;-80
2023/02/16 11:53:12;;;;;;;7.53;2.22;;;;;;;-145.69;34.91;52285.97;5133587;27;20224;-80
2023/02/16 11:55:42;;;;;;;5.10;1.88;;;;;;;-145.69;35.44;52276.06;5134317;27;20197;-80
2023/02/16 11:58:17;;;;;;;4.82;2.17;;;;;;;-145.69;35.61;52270.13;5133958;27;20200;-80
2023/02/16 12:00:59;;;;;;;5.97;1.88;;;;;;;-145.69;36.14;52238.44;5132037;27;20257;-81
2023/02/16 12:03:43;;;;;;;9.02;2.35;;;;;;;-145.69;35.62;52254.28;5133526;27;20228;-80